Time;durP1;ratioP1;P1;durP2;ratioP2;P2;SDS_P1;SDS_P2;PMS_P1;PMS_P2;Temp;Humidity;BMP_temperature;BMP_pressure;BME280_temperature;BME280_humidity;BME280_pressure;Samples;Min_cycle;Max_cycle;Signal;HPM_P1;HPM_P2
2022/02/04 00:07:17;;;;;;;2.00;0.68;;;;;;;;;;5031394;28;20036;-38
2022/02/04 00:22:47;;;;;;;0.68;0.68;;;;;;;;;;5031358;28;20098;-37
2022/02/04 00:25:24;;;;;;;2.58;0.75;;;;;;;;;;5031427;28;20029;-37
2022/02/04 00:27:52;;;;;;;0.55;0.52;;;;;;;;;;5031209;28;20033;-37
2022/02/04 00:30:24;;;;;;;1.27;0.70;;;;;;;;;;5031323;28;20387;-37
2022/02/04 00:32:52;;;;;;;1.33;0.63;;;;;;;;;;5030895;28;20030;-37
2022/02/04 00:37:58;;;;;;;1.85;1.13;;;;;;;;;;5031289;28;20033;-37
2022/02/04 00:40:26;;;;;;;0.93;0.93;;;;;;;;;;5031062;28;20384;-37
2022/02/04 00:42:55;;;;;;;0.75;0.50;;;;;;;;;;5031226;28;20072;-37
2022/02/04 00:45:31;;;;;;;0.65;0.40;;;;;;;;;;5035130;28;20111;-37
2022/02/04 00:48:09;;;;;;;0.73;0.55;;;;;;;;;;5034609;28;20545;-37
2022/02/04 00:50:52;;;;;;;1.00;0.45;;;;;;;;;;5034698;28;20048;-37
2022/02/04 00:53:29;;;;;;;1.23;0.47;;;;;;;;;;5034617;28;20045;-38
2022/02/04 01:28:21;;;;;;;0.55;0.35;;;;;;;;;;5033991;28;20041;-37
2022/02/04 01:30:47;;;;;;;0.38;0.35;;;;;;;;;;5033905;28;20104;-37
2022/02/04 01:33:13;;;;;;;4.38;0.57;;;;;;;;;;5033884;28;20120;-37
2022/02/04 01:35:38;;;;;;;1.98;0.40;;;;;;;;;;5032672;28;20022;-37
2022/02/04 01:38:04;;;;;;;1.50;0.68;;;;;;;;;;5033742;28;20030;-37
2022/02/04 01:40:29;;;;;;;0.73;0.55;;;;;;;;;;5034082;28;20032;-37
2022/02/04 01:42:55;;;;;;;0.47;0.30;;;;;;;;;;5033506;28;20511;-37
2022/02/04 01:45:20;;;;;;;0.70;0.60;;;;;;;;;;5033719;28;20037;-37
2022/02/04 01:47:55;;;;;;;0.77;0.65;;;;;;;;;;5033530;28;20025;-37
2022/02/04 01:50:24;;;;;;;0.73;0.50;;;;;;;;;;5034222;28;20076;-37
2022/02/04 01:52:50;;;;;;;0.47;0.30;;;;;;;;;;5033401;28;20021;-37
2022/02/04 01:55:16;;;;;;;2.10;0.50;;;;;;;;;;5032630;28;20032;-38
2022/02/04 01:57:42;;;;;;;2.00;0.80;;;;;;;;;;5033533;28;20475;-37
2022/02/04 02:00:08;;;;;;;4.40;0.52;;;;;;;;;;5033247;28;20376;-37
2022/02/04 02:02:34;;;;;;;0.47;0.45;;;;;;;;;;5033662;28;20037;-37
2022/02/04 02:04:59;;;;;;;9.48;1.95;;;;;;;;;;5033616;28;20561;-37
2022/02/04 02:07:26;;;;;;;1.15;0.50;;;;;;;;;;5033554;28;20460;-37
2022/02/04 02:12:22;;;;;;;1.10;0.60;;;;;;;;;;5033221;28;20491;-37
2022/02/04 02:14:56;;;;;;;0.63;0.45;;;;;;;;;;5033358;28;20067;-37
2022/02/04 02:59:28;;;;;;;1.95;0.60;;;;;;;;;;5032317;28;20395;-37
2022/02/04 03:01:53;;;;;;;1.30;0.80;;;;;;;;;;5032172;28;20025;-37
2022/02/04 03:04:19;;;;;;;1.23;0.40;;;;;;;;;;5032195;28;20375;-37
2022/02/04 03:06:45;;;;;;;2.53;0.70;;;;;;;;;;5032266;28;20079;-38
2022/02/04 03:09:11;;;;;;;0.88;0.50;;;;;;;;;;5032043;28;20029;-37
2022/02/04 03:11:37;;;;;;;1.10;0.50;;;;;;;;;;5031885;28;20087;-37
2022/02/04 03:14:02;;;;;;;4.72;0.90;;;;;;;;;;5032189;28;20104;-37
2022/02/04 03:16:28;;;;;;;0.40;0.40;;;;;;;;;;5032317;28;20394;-37
2022/02/04 03:18:55;;;;;;;4.40;1.02;;;;;;;;;;5031843;28;20033;-37
2022/02/04 03:21:24;;;;;;;3.40;0.60;;;;;;;;;;5032003;28;20115;-37
2022/02/04 03:23:55;;;;;;;1.77;0.82;;;;;;;;;;5032073;28;20060;-37
2022/02/04 03:28:49;;;;;;;0.75;0.60;;;;;;;;;;5031938;28;20391;-37
2022/02/04 03:31:14;;;;;;;0.47;0.40;;;;;;;;;;5031794;28;20025;-37
2022/02/04 03:33:42;;;;;;;2.13;0.70;;;;;;;;;;5030327;28;20417;-37
2022/02/04 03:39:42;;;;;;;0.30;0.30;;;;;;;;;;5031663;28;20095;-37
2022/02/04 03:42:08;;;;;;;0.32;0.30;;;;;;;;;;5031349;28;20045;-37
2022/02/04 03:44:36;;;;;;;0.80;0.55;;;;;;;;;;5031588;28;20108;-37
2022/02/04 03:47:01;;;;;;;5.93;0.88;;;;;;;;;;5031407;28;20044;-37
2022/02/04 03:49:27;;;;;;;0.52;0.45;;;;;;;;;;5031771;28;20029;-37
2022/02/04 03:51:52;;;;;;;0.40;0.40;;;;;;;;;;5031412;28;20030;-37
2022/02/04 03:54:17;;;;;;;3.42;1.35;;;;;;;;;;5031348;28;20028;-37
2022/02/04 03:56:43;;;;;;;0.50;0.50;;;;;;;;;;5031425;28;20034;-37
2022/02/04 03:59:08;;;;;;;0.68;0.40;;;;;;;;;;5031286;28;20029;-38
2022/02/04 04:01:34;;;;;;;0.75;0.55;;;;;;;;;;5031571;28;20135;-37
2022/02/04 04:04:00;;;;;;;3.00;0.52;;;;;;;;;;5031227;28;20025;-37
2022/02/04 04:06:25;;;;;;;2.20;0.82;;;;;;;;;;5031287;28;20101;-37
2022/02/04 04:08:53;;;;;;;0.47;0.47;;;;;;;;;;5031013;28;20128;-37
2022/02/04 04:11:19;;;;;;;0.60;0.60;;;;;;;;;;5031307;28;20029;-37
2022/02/04 04:13:44;;;;;;;0.68;0.52;;;;;;;;;;5031210;28;20065;-37
2022/02/04 04:16:10;;;;;;;0.60;0.60;;;;;;;;;;5029913;28;20036;-37
2022/02/04 04:18:35;;;;;;;2.25;1.02;;;;;;;;;;5033279;28;20013;-37
2022/02/04 04:21:01;;;;;;;1.30;0.47;;;;;;;;;;5035313;28;20075;-37
2022/02/04 04:23:27;;;;;;;0.70;0.55;;;;;;;;;;5035467;28;20022;-37
2022/02/04 04:25:52;;;;;;;1.00;0.55;;;;;;;;;;5035146;28;20037;-37
2022/02/04 04:28:18;;;;;;;0.73;0.73;;;;;;;;;;5035471;28;20116;-37
2022/02/04 04:30:43;;;;;;;1.75;0.40;;;;;;;;;;5035065;28;20491;-37
2022/02/04 04:33:10;;;;;;;0.68;0.55;;;;;;;;;;5035308;28;20100;-37
2022/02/04 04:35:36;;;;;;;0.65;0.52;;;;;;;;;;5035073;28;20512;-37
2022/02/04 04:40:52;;;;;;;0.55;0.47;;;;;;;;;;5035576;28;20116;-37
2022/02/04 05:29:33;;;;;;;4.30;0.50;;;;;;;;;;5042327;28;20076;-37
2022/02/04 05:31:58;;;;;;;0.77;0.70;;;;;;;;;;5034201;28;20469;-37
2022/02/04 05:34:23;;;;;;;0.52;0.52;;;;;;;;;;5034250;28;20483;-37
2022/02/04 05:36:59;;;;;;;0.52;0.52;;;;;;;;;;5034093;28;20026;-38
2022/02/04 05:39:27;;;;;;;2.55;0.55;;;;;;;;;;5034233;28;20399;-37
2022/02/04 05:41:53;;;;;;;4.38;0.88;;;;;;;;;;5033620;28;20056;-37
2022/02/04 05:44:18;;;;;;;0.40;0.40;;;;;;;;;;5034138;28;20386;-37
2022/02/04 05:46:51;;;;;;;0.63;0.60;;;;;;;;;;5033809;28;20372;-37
2022/02/04 05:49:18;;;;;;;3.10;0.93;;;;;;;;;;5033876;28;20042;-37
2022/02/04 05:57:11;;;;;;;3.55;0.77;;;;;;;;;;5033557;28;20090;-37
2022/02/04 06:02:52;;;;;;;1.15;0.85;;;;;;;;;;5033407;28;20037;-37
2022/02/04 06:05:40;;;;;;;7.25;1.00;;;;;;;;;;5033176;28;20033;-38
2022/02/04 06:13:54;;;;;;;4.90;1.63;;;;;;;;;;5033305;28;20307;-37
2022/02/04 06:24:02;;;;;;;1.42;1.00;;;;;;;;;;5032981;28;20032;-38
2022/02/04 06:26:28;;;;;;;3.35;1.30;;;;;;;;;;5033304;28;20108;-37
2022/02/04 06:28:53;;;;;;;1.65;1.20;;;;;;;;;;5032796;28;20227;-37
2022/02/04 06:31:19;;;;;;;5.32;1.45;;;;;;;;;;5033112;28;20045;-37
2022/02/04 06:33:44;;;;;;;4.10;1.88;;;;;;;;;;5033138;28;20464;-37
2022/02/04 06:36:10;;;;;;;2.03;1.55;;;;;;;;;;5032732;28;20014;-37
2022/02/04 06:38:35;;;;;;;1.08;0.95;;;;;;;;;;5032696;28;20029;-38
2022/02/04 06:41:02;;;;;;;1.83;0.82;;;;;;;;;;5031148;28;20104;-38
2022/02/04 06:43:28;;;;;;;1.33;1.17;;;;;;;;;;5032859;28;20083;-37
2022/02/04 06:45:54;;;;;;;1.23;1.05;;;;;;;;;;5032422;28;20129;-37
2022/02/04 06:48:20;;;;;;;1.60;1.13;;;;;;;;;;5032787;28;20156;-37
2022/02/04 06:50:45;;;;;;;2.08;0.80;;;;;;;;;;5032612;28;20074;-37
2022/02/04 06:53:11;;;;;;;1.80;1.38;;;;;;;;;;5032278;28;20040;-37
2022/02/04 06:55:36;;;;;;;1.65;1.00;;;;;;;;;;5032446;28;20095;-37
2022/02/04 06:58:02;;;;;;;4.97;0.90;;;;;;;;;;5032658;28;20372;-37
2022/02/04 07:00:28;;;;;;;2.70;1.20;;;;;;;;;;5032533;28;20017;-37
2022/02/04 07:02:54;;;;;;;5.43;1.23;;;;;;;;;;5032190;28;20717;-37
2022/02/04 07:05:21;;;;;;;7.88;1.58;;;;;;;;;;5032157;28;20033;-37
2022/02/04 07:07:56;;;;;;;1.60;0.95;;;;;;;;;;5032131;28;20422;-37
2022/02/04 07:10:31;;;;;;;1.25;1.13;;;;;;;;;;5032111;28;20037;-37
2022/02/04 07:13:08;;;;;;;4.35;2.50;;;;;;;;;;5031915;28;20103;-37
2022/02/04 07:15:51;;;;;;;2.15;1.45;;;;;;;;;;5032104;28;20025;-37
2022/02/04 07:21:02;;;;;;;3.63;2.20;;;;;;;;;;5031832;28;20279;-37
2022/02/04 07:23:28;;;;;;;3.40;2.05;;;;;;;;;;5032226;28;20033;-37
2022/02/04 07:25:53;;;;;;;2.30;1.77;;;;;;;;;;5032100;28;20033;-37
2022/02/04 07:28:19;;;;;;;5.50;1.25;;;;;;;;;;5031756;28;20034;-37
2022/02/04 07:30:45;;;;;;;1.65;1.10;;;;;;;;;;5032110;28;20036;-37
2022/02/04 07:33:20;;;;;;;5.18;1.40;;;;;;;;;;5031618;28;20484;-37
2022/02/04 07:41:04;;;;;;;4.03;1.67;;;;;;;;;;5031615;28;20033;-37
2022/02/04 07:43:30;;;;;;;2.33;1.55;;;;;;;;;;5031604;28;20196;-37
2022/02/04 07:45:56;;;;;;;8.32;1.92;;;;;;;;;;5031487;28;20484;-37
2022/02/04 07:48:21;;;;;;;9.63;2.00;;;;;;;;;;5031434;28;20115;-37
2022/02/04 07:50:48;;;;;;;5.80;1.80;;;;;;;;;;5031505;28;20013;-37
2022/02/04 07:53:14;;;;;;;3.78;2.17;;;;;;;;;;5030636;28;20377;-37
2022/02/04 07:55:39;;;;;;;5.53;2.00;;;;;;;;;;5031709;28;20028;-37
2022/02/04 07:58:05;;;;;;;2.97;1.85;;;;;;;;;;5031313;28;20387;-37
2022/02/04 08:00:30;;;;;;;7.32;2.55;;;;;;;;;;5031386;28;20091;-37
2022/02/04 08:03:01;;;;;;;5.68;1.90;;;;;;;;;;5031752;28;20045;-37
2022/02/04 08:05:29;;;;;;;3.95;2.05;;;;;;;;;;5031273;28;20037;-37
2022/02/04 08:23:57;;;;;;;6.65;1.85;;;;;;;;;;5031195;28;20083;-37
2022/02/04 08:26:48;;;;;;;5.00;2.35;;;;;;;;;;5030994;28;20029;-37
2022/02/04 08:53:08;;;;;;;4.25;2.20;;;;;;;;;;5029464;28;20034;-37
2022/02/04 08:55:54;;;;;;;3.00;1.90;;;;;;;;;;5030731;28;20471;-37
2022/02/04 08:58:29;;;;;;;5.75;2.45;;;;;;;;;;5030882;28;20033;-37
2022/02/04 09:01:09;;;;;;;10.65;2.33;;;;;;;;;;5031006;28;20029;-37
2022/02/04 09:06:14;;;;;;;16.48;2.67;;;;;;;;;;5033182;28;20529;-37
2022/02/04 09:08:44;;;;;;;3.42;2.22;;;;;;;;;;5034620;28;20491;-37
2022/02/04 09:11:15;;;;;;;3.78;1.70;;;;;;;;;;5034315;28;20061;-37
2022/02/04 09:19:16;;;;;;;2.30;1.40;;;;;;;;;;5034645;28;20033;-37
2022/02/04 09:24:14;;;;;;;2.33;1.40;;;;;;;;;;5034388;28;20033;-37
2022/02/04 09:26:40;;;;;;;2.30;2.03;;;;;;;;;;5034338;28;20051;-37
2022/02/04 09:29:05;;;;;;;2.40;1.63;;;;;;;;;;5033854;28;20033;-37
2022/02/04 09:31:32;;;;;;;3.72;2.13;;;;;;;;;;5034076;28;20059;-37
2022/02/04 09:33:57;;;;;;;4.05;1.70;;;;;;;;;;5034140;28;20032;-37
2022/02/04 09:36:23;;;;;;;3.92;2.40;;;;;;;;;;5033906;28;20038;-37
2022/02/04 09:38:49;;;;;;;6.65;2.13;;;;;;;;;;5033910;28;20021;-37
2022/02/04 09:41:18;;;;;;;7.30;1.98;;;;;;;;;;5033511;28;20535;-37
2022/02/04 09:43:44;;;;;;;4.65;1.98;;;;;;;;;;5033792;28;20769;-37
2022/02/04 09:46:09;;;;;;;2.60;1.65;;;;;;;;;;5033685;28;20060;-37
2022/02/04 09:48:35;;;;;;;4.68;2.03;;;;;;;;;;5033711;28;20446;-37
2022/02/04 09:51:01;;;;;;;13.32;2.05;;;;;;;;;;5034023;28;20037;-37
2022/02/04 10:18:10;;;;;;;5.00;2.25;;;;;;;;;;5032991;28;20041;-37
2022/02/04 10:20:37;;;;;;;4.93;1.85;;;;;;;;;;5033323;28;20046;-37
2022/02/04 10:23:03;;;;;;;2.30;1.48;;;;;;;;;;5033277;28;20025;-37
2022/02/04 10:25:47;;;;;;;5.20;2.30;;;;;;;;;;5033283;28;20372;-37
2022/02/04 10:28:29;;;;;;;3.85;1.65;;;;;;;;;;5032888;28;20387;-37
2022/02/04 10:31:10;;;;;;;2.65;2.20;;;;;;;;;;5032794;28;20034;-37
2022/02/04 10:33:54;;;;;;;4.13;2.00;;;;;;;;;;5032821;28;20033;-37
2022/02/04 10:36:33;;;;;;;7.82;1.92;;;;;;;;;;5033115;28;20351;-37
2022/02/04 10:38:59;;;;;;;4.72;2.38;;;;;;;;;;5032657;28;20488;-37
2022/02/04 10:41:30;;;;;;;2.55;1.85;;;;;;;;;;5031284;28;20041;-37
2022/02/04 10:44:04;;;;;;;6.28;2.38;;;;;;;;;;5032953;28;20287;-37
2022/02/04 10:46:38;;;;;;;6.57;1.60;;;;;;;;;;5031418;28;20035;-37
2022/02/04 10:57:33;;;;;;;4.50;2.15;;;;;;;;;;5032430;28;20183;-37
2022/02/04 11:00:07;;;;;;;4.10;2.00;;;;;;;;;;5032342;28;20025;-37
2022/02/04 11:02:57;;;;;;;2.33;1.83;;;;;;;;;;5032193;28;20468;-37
2022/02/04 11:11:12;;;;;;;3.63;1.58;;;;;;;;;;5032134;28;20028;-37
2022/02/04 11:35:37;;;;;;;11.23;2.25;;;;;;;;;;5031822;28;20496;-37
2022/02/04 11:52:25;;;;;;;4.03;2.75;;;;;;;;;;5031280;28;20431;-37
2022/02/04 11:54:55;;;;;;;4.88;2.25;;;;;;;;;;5031798;28;20041;-37
2022/02/04 11:57:31;;;;;;;2.13;1.55;;;;;;;;;;5031772;28;20092;-36
2022/02/04 12:00:01;;;;;;;2.25;1.45;;;;;;;;;;5031445;28;20042;-37
2022/02/04 12:02:34;;;;;;;5.45;1.75;;;;;;;;;;5031313;28;20114;-37
2022/02/04 12:05:11;;;;;;;1.75;1.52;;;;;;;;;;5031337;28;20176;-37
2022/02/04 12:07:43;;;;;;;4.95;2.20;;;;;;;;;;5031265;28;20112;-36
2022/02/04 12:10:12;;;;;;;3.08;1.73;;;;;;;;;;5031243;28;20388;-37
2022/02/04 12:12:54;;;;;;;3.38;1.98;;;;;;;;;;5031197;28;20075;-37
2022/02/04 12:17:57;;;;;;;4.60;1.73;;;;;;;;;;5031516;28;20034;-37
2022/02/04 12:20:42;;;;;;;1.52;1.38;;;;;;;;;;5031544;28;20037;-37
2022/02/04 12:23:07;;;;;;;6.03;1.70;;;;;;;;;;5031089;28;20025;-37
2022/02/04 12:25:52;;;;;;;12.07;2.50;;;;;;;;;;5031139;28;20031;-37
2022/02/04 12:28:36;;;;;;;3.95;1.90;;;;;;;;;;5030905;28;20036;-37
2022/02/04 12:31:08;;;;;;;4.63;2.65;;;;;;;;;;5031232;28;20040;-37
2022/02/04 12:33:44;;;;;;;5.53;2.15;;;;;;;;;;5031112;28;20056;-37
2022/02/04 12:36:13;;;;;;;5.35;2.33;;;;;;;;;;5031222;28;20041;-37
2022/02/04 12:38:38;;;;;;;3.78;1.92;;;;;;;;;;5031365;28;20030;-37
2022/02/04 12:41:04;;;;;;;4.95;2.80;;;;;;;;;;5034939;28;20217;-38
2022/02/04 12:43:34;;;;;;;7.00;2.30;;;;;;;;;;5035001;28;20502;-38
2022/02/04 12:45:59;;;;;;;4.47;2.55;;;;;;;;;;5034819;28;20072;-38
2022/02/04 12:48:25;;;;;;;4.97;2.33;;;;;;;;;;5034697;28;20025;-37
2022/02/04 12:50:51;;;;;;;4.25;2.47;;;;;;;;;;5034690;28;20033;-37
2022/02/04 12:53:29;;;;;;;3.58;2.45;;;;;;;;;;5034693;28;20021;-37
2022/02/04 12:56:33;;;;;;;3.83;1.83;;;;;;;;;;5034628;28;20044;-37
2022/02/04 13:09:53;;;;;;;4.85;2.60;;;;;;;;;;5034363;28;20091;-37
2022/02/04 13:12:21;;;;;;;3.22;1.98;;;;;;;;;;5034311;28;20033;-37
2022/02/04 13:14:48;;;;;;;3.28;2.17;;;;;;;;;;5034714;28;20136;-37
2022/02/04 13:17:30;;;;;;;2.78;2.10;;;;;;;;;;5034434;28;20026;-37
2022/02/04 13:19:57;;;;;;;2.08;1.70;;;;;;;;;;5034106;28;20529;-37
2022/02/04 13:22:23;;;;;;;5.60;3.55;;;;;;;;;;5033060;28;20456;-37
2022/02/04 13:25:07;;;;;;;5.47;2.83;;;;;;;;;;5034148;28;20056;-37
2022/02/04 13:27:33;;;;;;;2.17;1.98;;;;;;;;;;5034225;28;20144;-37
2022/02/04 13:29:59;;;;;;;10.93;3.38;;;;;;;;;;5033901;28;20128;-37
2022/02/04 13:32:26;;;;;;;4.60;2.72;;;;;;;;;;5034325;28;20041;-37
2022/02/04 13:34:53;;;;;;;4.28;2.13;;;;;;;;;;5034065;28;20025;-37
2022/02/04 13:37:26;;;;;;;4.90;2.03;;;;;;;;;;5033844;28;20112;-37
2022/02/04 13:40:07;;;;;;;4.05;2.55;;;;;;;;;;5033872;28;20391;-37
2022/02/04 13:42:45;;;;;;;7.22;2.83;;;;;;;;;;5033708;28;20542;-37
2022/02/04 13:45:28;;;;;;;7.85;3.17;;;;;;;;;;5033705;28;20033;-37
2022/02/04 13:48:08;;;;;;;2.58;1.55;;;;;;;;;;5034113;28;20029;-37
2022/02/04 13:53:20;;;;;;;4.10;2.85;;;;;;;;;;5033758;28;20025;-37
2022/02/04 13:58:49;;;;;;;5.18;3.40;;;;;;;;;;5033500;28;20037;-37
2022/02/04 14:01:20;;;;;;;6.82;3.20;;;;;;;;;;5033652;28;20036;-37
2022/02/04 14:03:53;;;;;;;7.03;3.45;;;;;;;;;;5033513;28;20033;-37
2022/02/04 14:06:25;;;;;;;6.22;3.22;;;;;;;;;;5033301;28;20029;-37
2022/02/04 14:11:35;;;;;;;7.30;3.92;;;;;;;;;;5033558;28;20418;-37
2022/02/04 14:14:22;;;;;;;6.60;3.53;;;;;;;;;;5033164;28;20116;-37
2022/02/04 14:16:52;;;;;;;8.55;3.45;;;;;;;;;;5033018;28;20488;-37
2022/02/04 14:19:18;;;;;;;8.90;3.28;;;;;;;;;;5033175;28;20044;-37
2022/02/04 14:21:44;;;;;;;5.78;3.05;;;;;;;;;;5033062;28;20029;-37
2022/02/04 14:24:12;;;;;;;7.93;4.15;;;;;;;;;;5033093;28;20033;-37
2022/02/04 14:26:45;;;;;;;8.45;4.35;;;;;;;;;;5033101;28;20018;-37
2022/02/04 14:29:18;;;;;;;7.05;3.72;;;;;;;;;;5033196;28;20120;-37
2022/02/04 14:31:55;;;;;;;6.28;3.72;;;;;;;;;;5032910;28;20057;-37
2022/02/04 14:37:03;;;;;;;7.30;3.95;;;;;;;;;;5032853;28;20029;-37
2022/02/04 14:53:25;;;;;;;6.18;3.95;;;;;;;;;;5032531;28;20040;-37
2022/02/04 15:03:45;;;;;;;8.75;3.60;;;;;;;;;;5032063;28;20033;-37
2022/02/04 15:06:15;;;;;;;10.50;4.95;;;;;;;;;;5032296;28;20436;-37
2022/02/04 15:08:42;;;;;;;12.48;3.75;;;;;;;;;;5032165;28;20044;-37
2022/02/04 15:11:17;;;;;;;5.32;3.45;;;;;;;;;;5032331;28;20041;-37
2022/02/04 15:13:43;;;;;;;8.57;4.38;;;;;;;;;;5032209;28;20025;-37
2022/02/04 15:16:09;;;;;;;11.02;3.78;;;;;;;;;;5032049;28;20025;-37
2022/02/04 15:18:35;;;;;;;8.60;3.72;;;;;;;;;;5032024;28;20034;-37
2022/02/04 15:21:04;;;;;;;10.15;4.75;;;;;;;;;;5032145;28;20546;-37
2022/02/04 15:23:31;;;;;;;14.20;5.38;;;;;;;;;;5032021;28;20029;-37
2022/02/04 15:26:00;;;;;;;15.45;4.07;;;;;;;;;;5030547;28;20053;-37
2022/02/04 15:30:53;;;;;;;12.85;4.68;;;;;;;;;;5030512;28;20060;-37
2022/02/04 15:33:20;;;;;;;12.65;4.65;;;;;;;;;;5031678;28;20048;-37
2022/02/04 15:35:46;;;;;;;15.05;4.63;;;;;;;;;;5031822;28;20033;-37
2022/02/04 15:38:12;;;;;;;13.38;5.78;;;;;;;;;;5031866;28;20029;-37
2022/02/04 15:40:42;;;;;;;8.85;4.28;;;;;;;;;;5031640;28;20040;-37
2022/02/04 15:43:08;;;;;;;11.10;5.28;;;;;;;;;;5031353;28;20053;-37
2022/02/04 15:51:06;;;;;;;12.43;5.07;;;;;;;;;;5031480;28;20053;-37
2022/02/04 16:01:20;;;;;;;9.10;5.10;;;;;;;;;;5029977;28;20049;-38
2022/02/04 16:06:15;;;;;;;11.05;5.55;;;;;;;;;;5031320;28;20013;-37
2022/02/04 16:08:42;;;;;;;16.48;6.65;;;;;;;;;;5031470;28;20468;-37
2022/02/04 16:11:30;;;;;;;10.82;6.32;;;;;;;;;;5031115;28;20032;-39
2022/02/04 16:16:53;;;;;;;12.80;6.20;;;;;;;;;;5031219;28;20135;-37
2022/02/04 16:22:03;;;;;;;14.13;6.95;;;;;;;;;;5031377;28;20375;-37
2022/02/04 16:30:00;;;;;;;10.70;7.40;;;;;;;;;;5030898;28;20045;-39
2022/02/04 16:32:27;;;;;;;11.35;5.88;;;;;;;;;;5031006;28;20029;-37
2022/02/04 16:34:54;;;;;;;11.48;5.57;;;;;;;;;;5031074;28;20029;-37
2022/02/04 16:37:29;;;;;;;18.40;6.15;;;;;;;;;;5031192;28;20055;-37
2022/02/04 16:39:59;;;;;;;8.93;6.57;;;;;;;;;;5031022;28;20045;-37
2022/02/04 16:42:28;;;;;;;10.13;5.85;;;;;;;;;;5030728;28;20492;-37
2022/02/04 16:44:54;;;;;;;14.00;6.63;;;;;;;;;;5030998;28;20021;-37
2022/02/04 16:47:19;;;;;;;19.27;7.35;;;;;;;;;;5030836;28;20040;-37
2022/02/04 16:49:48;;;;;;;11.70;6.88;;;;;;;;;;5030832;28;20143;-37
2022/02/04 16:52:15;;;;;;;14.23;6.60;;;;;;;;;;5030771;28;20029;-38
2022/02/04 16:54:45;;;;;;;13.77;6.25;;;;;;;;;;5030897;28;20033;-37
2022/02/04 16:57:11;;;;;;;12.45;6.32;;;;;;;;;;5030699;28;20419;-37
2022/02/04 16:59:37;;;;;;;14.80;6.90;;;;;;;;;;5031188;28;20361;-37
2022/02/04 17:02:03;;;;;;;13.30;6.07;;;;;;;;;;5031029;28;20029;-37
2022/02/04 17:04:29;;;;;;;11.32;6.38;;;;;;;;;;5030994;28;20083;-37
2022/02/04 17:07:09;;;;;;;16.92;7.07;;;;;;;;;;5031103;28;20481;-37
2022/02/04 17:09:39;;;;;;;13.45;5.57;;;;;;;;;;5030684;28;20107;-37
2022/02/04 17:12:11;;;;;;;12.32;5.70;;;;;;;;;;5030589;28;20510;-37
2022/02/04 17:14:37;;;;;;;8.33;5.70;;;;;;;;;;5030705;28;20033;-37
2022/02/04 17:17:04;;;;;;;11.55;5.72;;;;;;;;;;5030600;28;20021;-37
2022/02/04 17:19:37;;;;;;;16.52;5.47;;;;;;;;;;5030642;28;20037;-37
2022/02/04 17:22:04;;;;;;;12.80;5.07;;;;;;;;;;5030616;28;20037;-37
2022/02/04 17:24:30;;;;;;;12.57;5.63;;;;;;;;;;5030925;28;20025;-37
2022/02/04 17:26:56;;;;;;;11.30;5.38;;;;;;;;;;5032878;28;20479;-38
2022/02/04 17:29:22;;;;;;;14.20;6.10;;;;;;;;;;5034293;28;20029;-37
2022/02/04 17:31:48;;;;;;;13.18;6.65;;;;;;;;;;5034022;28;20033;-37
2022/02/04 17:34:16;;;;;;;13.23;6.47;;;;;;;;;;5033966;28;20021;-37
2022/02/04 17:36:42;;;;;;;12.10;6.07;;;;;;;;;;5034035;28;20041;-37
2022/02/04 17:39:15;;;;;;;13.48;5.18;;;;;;;;;;5034069;28;20040;-37
2022/02/04 17:41:42;;;;;;;12.02;5.68;;;;;;;;;;5033677;28;20061;-37
2022/02/04 17:44:08;;;;;;;10.02;5.57;;;;;;;;;;5033805;28;20037;-37
2022/02/04 17:46:33;;;;;;;10.90;5.82;;;;;;;;;;5034092;28;20061;-37
2022/02/04 17:49:10;;;;;;;10.88;5.82;;;;;;;;;;5033938;28;20069;-37
2022/02/04 17:51:44;;;;;;;14.02;6.07;;;;;;;;;;5033654;28;20029;-37
2022/02/04 17:54:14;;;;;;;12.68;6.68;;;;;;;;;;5033788;28;20037;-37
2022/02/04 17:56:59;;;;;;;10.32;5.32;;;;;;;;;;5033966;28;20183;-37
2022/02/04 18:02:28;;;;;;;12.05;6.85;;;;;;;;;;5033359;28;20102;-37
2022/02/04 18:07:50;;;;;;;16.77;6.03;;;;;;;;;;5031191;28;20492;-37
2022/02/04 18:10:16;;;;;;;11.18;5.80;;;;;;;;;;5033230;28;20036;-37
2022/02/04 18:12:42;;;;;;;18.92;5.70;;;;;;;;;;5033282;28;20507;-37
2022/02/04 18:15:08;;;;;;;12.20;5.18;;;;;;;;;;5033232;28;20061;-37
2022/02/04 18:17:38;;;;;;;15.85;6.35;;;;;;;;;;5033242;28;20031;-37
2022/02/04 18:20:04;;;;;;;16.73;5.47;;;;;;;;;;5033709;28;20437;-37
2022/02/04 18:22:35;;;;;;;7.55;4.10;;;;;;;;;;5033325;28;20037;-37
2022/02/04 18:25:10;;;;;;;9.40;4.85;;;;;;;;;;5033065;28;20350;-37
2022/02/04 18:27:39;;;;;;;9.18;4.03;;;;;;;;;;5033121;28;20559;-37
2022/02/04 18:30:06;;;;;;;6.43;3.70;;;;;;;;;;5032678;28;20033;-37
2022/02/04 18:32:39;;;;;;;11.50;4.15;;;;;;;;;;5032952;28;20037;-37
2022/02/04 18:35:08;;;;;;;8.00;3.72;;;;;;;;;;5033221;28;20053;-37
2022/02/04 18:37:39;;;;;;;3.08;2.65;;;;;;;;;;5032245;28;20013;-37
2022/02/04 18:45:25;;;;;;;5.60;3.00;;;;;;;;;;5032652;28;20041;-37
2022/02/04 18:51:19;;;;;;;4.40;2.40;;;;;;;;;;5032696;28;20069;-37
2022/02/04 18:58:15;;;;;;;7.65;3.60;;;;;;;;;;5032338;28;20391;-37
2022/02/04 19:00:41;;;;;;;3.95;1.98;;;;;;;;;;5032657;28;20021;-37
2022/02/04 19:03:13;;;;;;;10.90;2.03;;;;;;;;;;5032353;28;20356;-37
2022/02/04 19:05:45;;;;;;;4.75;1.80;;;;;;;;;;5032605;28;20395;-37
2022/02/04 19:08:22;;;;;;;5.45;3.42;;;;;;;;;;5032254;28;20503;-37
2022/02/04 19:10:49;;;;;;;16.25;4.20;;;;;;;;;;5032220;28;20042;-37
2022/02/04 19:13:25;;;;;;;17.67;4.47;;;;;;;;;;5032090;28;20083;-37
2022/02/04 19:18:28;;;;;;;7.68;2.22;;;;;;;;;;5032020;28;20033;-37
2022/02/04 19:21:10;;;;;;;6.20;1.88;;;;;;;;;;5031961;28;20030;-37
2022/02/04 19:23:37;;;;;;;4.82;2.13;;;;;;;;;;5031974;28;20037;-37
2022/02/04 19:26:12;;;;;;;7.75;2.50;;;;;;;;;;5031900;28;20072;-37
2022/02/04 19:28:39;;;;;;;6.00;2.28;;;;;;;;;;5030639;28;20033;-37
2022/02/04 19:31:04;;;;;;;2.15;1.88;;;;;;;;;;5031686;28;20029;-37
2022/02/04 19:33:30;;;;;;;3.67;3.20;;;;;;;;;;5032045;28;20094;-37
2022/02/04 19:35:58;;;;;;;3.45;2.05;;;;;;;;;;5031739;28;20379;-37
2022/02/04 19:38:24;;;;;;;5.18;2.90;;;;;;;;;;5031718;28;20040;-37
2022/02/04 19:40:49;;;;;;;6.13;2.65;;;;;;;;;;5031653;28;20021;-37
2022/02/04 19:43:18;;;;;;;4.93;3.53;;;;;;;;;;5031416;28;20092;-37
2022/02/04 19:46:31;;;;;;;3.83;2.85;;;;;;;;;;5031977;28;20052;-37
2022/02/04 19:48:37;;;;;;;7.22;2.55;;;;;;;;;;5030228;28;20048;-37
2022/02/04 20:26:26;;;;;;;4.07;2.35;;;;;;;;;;5028801;28;20568;-37
2022/02/04 20:28:52;;;;;;;3.53;2.05;;;;;;;;;;5030734;28;20037;-37
2022/02/04 20:31:18;;;;;;;9.00;3.30;;;;;;;;;;5031005;28;20104;-37
2022/02/04 20:33:44;;;;;;;7.28;3.00;;;;;;;;;;5031151;28;20535;-37
2022/02/04 20:36:09;;;;;;;5.00;2.33;;;;;;;;;;5030949;28;20091;-37
2022/02/04 20:38:45;;;;;;;4.35;2.90;;;;;;;;;;5031059;28;20029;-37
2022/02/04 20:41:13;;;;;;;6.07;2.28;;;;;;;;;;5030718;28;20040;-39
2022/02/04 20:43:39;;;;;;;4.68;2.85;;;;;;;;;;5031144;28;20106;-37
2022/02/04 20:46:05;;;;;;;5.50;2.65;;;;;;;;;;5030884;28;20056;-37
2022/02/04 20:48:35;;;;;;;5.60;2.95;;;;;;;;;;5031152;28;20033;-37
2022/02/04 20:51:02;;;;;;;8.40;2.58;;;;;;;;;;5031195;28;20041;-37
2022/02/04 20:53:27;;;;;;;8.10;3.65;;;;;;;;;;5031049;28;20095;-37
2022/02/04 20:55:53;;;;;;;8.50;3.42;;;;;;;;;;5030974;28;20503;-37
2022/02/04 20:58:19;;;;;;;5.57;3.30;;;;;;;;;;5031076;28;20029;-37
2022/02/04 21:00:45;;;;;;;10.45;3.55;;;;;;;;;;5032761;28;20095;-37
2022/02/04 21:03:12;;;;;;;5.57;3.75;;;;;;;;;;5034638;28;20041;-37
2022/02/04 21:16:00;;;;;;;6.35;3.25;;;;;;;;;;5034705;28;20108;-37
2022/02/04 21:18:25;;;;;;;6.22;3.17;;;;;;;;;;5034595;28;20567;-37
2022/02/04 21:20:51;;;;;;;5.03;2.90;;;;;;;;;;5034447;28;20520;-37
2022/02/04 21:23:18;;;;;;;9.52;2.78;;;;;;;;;;5034497;28;20079;-37
2022/02/04 21:25:43;;;;;;;7.95;3.58;;;;;;;;;;5034198;28;20037;-37
2022/02/04 21:28:10;;;;;;;7.57;4.20;;;;;;;;;;5034303;28;20029;-37
2022/02/04 21:30:37;;;;;;;4.88;2.95;;;;;;;;;;5034330;28;20041;-37
2022/02/04 21:33:08;;;;;;;4.78;2.55;;;;;;;;;;5034127;28;20479;-38
2022/02/04 21:38:18;;;;;;;7.30;2.97;;;;;;;;;;5034142;28;20044;-37
2022/02/04 21:40:43;;;;;;;4.20;2.67;;;;;;;;;;5033887;28;20029;-36
2022/02/04 21:43:09;;;;;;;11.35;2.92;;;;;;;;;;5033576;28;20462;-37
2022/02/04 21:45:36;;;;;;;4.53;3.00;;;;;;;;;;5033909;28;20044;-37
2022/02/04 21:48:04;;;;;;;4.38;2.78;;;;;;;;;;5034040;28;20034;-37
2022/02/04 21:50:34;;;;;;;7.78;3.13;;;;;;;;;;5033599;28;20025;-37
2022/02/04 21:52:59;;;;;;;9.80;3.65;;;;;;;;;;5033711;28;20037;-37
2022/02/04 21:55:25;;;;;;;6.25;3.72;;;;;;;;;;5033615;28;20052;-37
2022/02/04 21:57:50;;;;;;;5.10;2.72;;;;;;;;;;5033621;28;20041;-37
2022/02/04 22:00:16;;;;;;;7.90;2.50;;;;;;;;;;5033718;28;20091;-37
2022/02/04 22:02:42;;;;;;;6.07;3.40;;;;;;;;;;5033798;28;20099;-37
2022/02/04 22:05:07;;;;;;;9.23;3.13;;;;;;;;;;5033491;28;20009;-38
2022/02/04 22:07:39;;;;;;;4.18;3.47;;;;;;;;;;5033568;28;20029;-37
2022/02/04 22:10:20;;;;;;;7.45;3.67;;;;;;;;;;5033261;28;20077;-37
2022/02/04 22:23:24;;;;;;;10.07;3.78;;;;;;;;;;5033125;28;20530;-37
2022/02/04 22:25:49;;;;;;;9.95;3.63;;;;;;;;;;5032999;28;20029;-37
2022/02/04 22:28:15;;;;;;;8.35;4.15;;;;;;;;;;5031680;28;20099;-37
2022/02/04 22:30:44;;;;;;;10.50;4.25;;;;;;;;;;5032947;28;20037;-37
2022/02/04 22:33:13;;;;;;;6.88;4.30;;;;;;;;;;5033427;28;20032;-38
2022/02/04 22:35:57;;;;;;;9.15;3.65;;;;;;;;;;5032056;28;20041;-37
2022/02/04 22:41:15;;;;;;;9.88;4.70;;;;;;;;;;5032743;28;20053;-37